createdAt,value
2023-01-31T02:07:47.585Z,25.10
2023-01-31T02:09:47.565Z,25.70
2023-01-31T02:10:47.557Z,35.29
2023-01-31T02:11:47.570Z,33.70
2023-01-31T02:12:47.542Z,37.40
2023-01-31T02:13:47.527Z,37.70
2023-01-31T02:14:47.523Z,47.00
2023-01-31T02:15:47.509Z,42.70
2023-01-31T02:16:47.569Z,42.40
2023-01-31T02:17:47.485Z,43.59
2023-01-31T02:18:47.476Z,43.70
2023-01-31T02:19:47.471Z,47.29
2023-01-31T02:20:47.453Z,46.59
2023-01-31T02:21:47.442Z,53.09
2023-01-31T02:22:47.434Z,55.50
2023-01-31T02:23:47.428Z,57.59
2023-01-31T02:24:47.416Z,58.09
2023-01-31T02:25:47.403Z,59.59
2023-01-31T02:26:47.482Z,55.20
2023-01-31T02:27:47.409Z,65.30
2023-01-31T02:28:47.376Z,70.40
2023-01-31T02:29:47.367Z,71.69
2023-01-31T02:30:47.402Z,70.19
2023-01-31T02:31:47.367Z,72.69
2023-01-31T02:32:47.334Z,76.59
2023-01-31T02:33:47.326Z,71.09
2023-01-31T02:34:47.315Z,73.00
2023-01-31T02:35:47.304Z,77.69
2023-01-31T02:36:47.294Z,74.50
2023-01-31T02:37:47.285Z,69.00
2023-01-31T02:38:47.269Z,80.40
2023-01-31T04:25:46.259Z,110.90
2023-01-31T04:27:46.188Z,92.19
2023-01-31T05:03:45.842Z,162.89
2023-01-31T05:04:45.826Z,155.10
2023-01-31T06:03:45.254Z,72.30
2023-01-31T06:57:44.720Z,45.59
2023-01-31T07:07:44.637Z,28.79
2023-01-31T07:11:44.586Z,39.40
2023-01-31T07:12:44.573Z,41.20
2023-01-31T07:13:44.564Z,46.20
2023-01-31T07:15:44.630Z,32.79
2023-01-31T07:16:44.541Z,37.40
2023-01-31T07:18:44.520Z,47.00
2023-01-31T07:27:44.423Z,24.79
2023-01-31T07:28:44.416Z,24.29
2023-01-31T07:56:44.142Z,20.20
2023-01-31T07:57:44.141Z,17.50
2023-01-31T07:59:44.111Z,14.89
2023-01-31T08:00:44.206Z,14.60
2023-01-31T08:01:44.087Z,11.89
2023-01-31T08:02:44.077Z,12.80
2023-01-31T08:03:44.102Z,14.00
2023-01-31T08:04:44.098Z,14.69
2023-01-31T08:05:44.046Z,15.39
2023-01-31T08:06:44.039Z,20.00
2023-01-31T08:07:44.027Z,22.10
2023-01-31T08:08:44.022Z,29.60
2023-01-31T08:09:44.004Z,31.20
2023-01-31T08:10:43.994Z,30.39
2023-01-31T08:11:43.996Z,28.50
2023-01-31T08:12:43.974Z,16.89
2023-01-31T08:13:44.124Z,12.89
2023-01-31T08:14:43.964Z,11.89
2023-01-31T08:15:43.975Z,17.20
2023-01-31T08:16:44.084Z,23.50
2023-01-31T08:17:43.924Z,27.89
2023-01-31T08:18:43.914Z,27.10
2023-01-31T08:19:43.943Z,26.60
2023-01-31T08:20:43.900Z,23.79
2023-01-31T08:21:43.882Z,18.79
2023-01-31T08:22:43.879Z,21.00
2023-01-31T08:23:43.884Z,20.20
2023-01-31T08:24:44.418Z,22.29
2023-01-31T08:25:44.470Z,20.50
2023-01-31T08:26:44.454Z,23.39
2023-01-31T08:27:44.208Z,21.20
2023-01-31T08:28:43.909Z,25.29
2023-01-31T08:29:44.035Z,25.29
2023-01-31T08:30:48.417Z,28.00
2023-01-31T08:31:44.045Z,26.70
2023-01-31T08:32:43.772Z,32.50
2023-01-31T08:33:43.759Z,21.70
2023-01-31T08:34:43.748Z,18.10
2023-01-31T08:35:43.762Z,14.80
2023-01-31T08:36:43.877Z,18.20
2023-01-31T08:37:43.720Z,17.10
2023-01-31T08:38:43.730Z,22.00
2023-01-31T08:39:43.698Z,22.39
2023-01-31T08:40:43.695Z,22.79
2023-01-31T08:41:43.680Z,25.20
2023-01-31T08:42:43.669Z,21.29
2023-01-31T08:43:55.059Z,21.39
2023-01-31T08:44:44.679Z,13.39
2023-01-31T08:45:43.641Z,14.69
2023-01-31T08:46:43.717Z,15.69
2023-01-31T08:47:43.617Z,23.00
2023-01-31T08:48:43.608Z,23.60
2023-01-31T08:49:43.595Z,27.00
2023-01-31T08:50:43.613Z,28.20
2023-01-31T08:51:43.605Z,36.09
2023-01-31T08:52:43.569Z,22.10
2023-01-31T08:53:43.560Z,16.89
2023-01-31T08:54:43.543Z,23.79
2023-01-31T08:55:43.539Z,23.10
2023-01-31T08:56:43.526Z,21.79
2023-01-31T08:57:57.920Z,16.50
2023-01-31T08:58:44.539Z,15.60
2023-01-31T08:59:43.494Z,16.00
2023-01-31T09:00:43.487Z,12.30
2023-01-31T09:01:43.490Z,12.50
2023-01-31T09:02:43.487Z,14.69
2023-01-31T09:03:45.179Z,13.89
2023-01-31T09:04:43.448Z,15.69
2023-01-31T09:05:43.432Z,20.29
2023-01-31T09:06:43.437Z,29.50
2023-01-31T09:07:43.441Z,24.29
2023-01-31T09:08:43.402Z,16.00
2023-01-31T09:09:43.393Z,13.69
2023-01-31T09:10:43.392Z,12.00
2023-01-31T09:11:43.374Z,12.50
2023-01-31T09:12:43.360Z,16.39
2023-01-31T09:13:43.366Z,36.90
2023-01-31T09:14:43.340Z,43.40
2023-01-31T09:15:43.330Z,43.79
2023-01-31T09:16:43.794Z,46.20
2023-01-31T09:17:43.310Z,48.29
2023-01-31T09:18:43.327Z,51.00
2023-01-31T09:19:43.291Z,48.29
2023-01-31T09:20:43.295Z,43.59
2023-01-31T09:21:43.273Z,42.59
2023-01-31T09:22:43.261Z,40.59
2023-01-31T09:23:43.350Z,44.79
2023-01-31T09:24:43.252Z,41.09
2023-01-31T09:25:47.560Z,42.50
2023-01-31T09:26:43.263Z,44.00
2023-01-31T09:27:43.206Z,48.09
2023-01-31T09:28:43.198Z,56.40
2023-01-31T09:29:43.194Z,32.20
2023-01-31T09:30:43.227Z,38.09
2023-01-31T09:31:43.244Z,43.29
2023-01-31T09:32:43.162Z,49.50
2023-01-31T09:33:43.148Z,46.90
2023-01-31T09:34:43.146Z,49.29
2023-01-31T09:35:43.128Z,54.29
2023-01-31T09:36:43.121Z,54.29
2023-01-31T09:37:43.112Z,63.59
2023-01-31T09:38:43.110Z,63.00
2023-01-31T09:39:43.122Z,65.59
2023-01-31T09:40:43.078Z,68.09
2023-01-31T09:41:43.073Z,62.00
2023-01-31T09:42:43.066Z,70.00
2023-01-31T09:43:43.059Z,66.30
2023-01-31T09:44:43.045Z,69.69
2023-01-31T09:45:43.026Z,67.40
2023-01-31T09:46:43.074Z,68.59
2023-01-31T09:47:43.007Z,61.29
2023-01-31T09:48:42.997Z,61.90
2023-01-31T09:49:42.987Z,63.29
2023-01-31T09:50:42.977Z,66.50
2023-01-31T09:51:42.969Z,58.90
2023-01-31T09:52:42.960Z,59.29
2023-01-31T09:53:42.980Z,63.00
2023-01-31T09:54:42.944Z,65.80
2023-01-31T09:55:42.962Z,61.70
2023-01-31T09:56:42.957Z,68.00
2023-01-31T09:57:43.019Z,60.50
2023-01-31T09:58:42.897Z,64.09
2023-01-31T09:59:42.888Z,59.70
2023-01-31T10:00:42.901Z,57.40
2023-01-31T10:01:42.870Z,66.40
2023-01-31T10:02:42.862Z,65.09
2023-01-31T10:03:42.897Z,61.90
2023-01-31T10:04:42.855Z,61.40
2023-01-31T10:05:42.832Z,62.00
2023-01-31T10:06:42.820Z,64.00
2023-01-31T10:07:42.812Z,60.50
2023-01-31T10:08:42.819Z,59.90
2023-01-31T10:09:42.795Z,60.00
2023-01-31T10:10:42.779Z,61.79
2023-01-31T10:11:42.795Z,61.09
2023-01-31T10:12:42.775Z,60.29
2023-01-31T10:13:42.752Z,62.09
2023-01-31T10:14:42.744Z,61.70
2023-01-31T10:15:42.735Z,65.50
2023-01-31T10:16:42.726Z,60.79
2023-01-31T10:17:42.800Z,55.79
2023-01-31T10:18:42.710Z,53.90
2023-01-31T10:19:42.698Z,56.70
2023-01-31T10:20:42.695Z,58.90
2023-01-31T10:21:42.672Z,64.19
2023-01-31T10:22:42.662Z,61.50
2023-01-31T10:23:42.662Z,62.40
2023-01-31T10:24:42.645Z,57.79
2023-01-31T10:25:42.649Z,60.59
2023-01-31T10:26:42.693Z,60.79
2023-01-31T10:27:42.657Z,56.29
2023-01-31T10:28:42.614Z,57.79
2023-01-31T10:29:42.598Z,55.79
2023-01-31T10:30:42.636Z,55.20
2023-01-31T10:31:44.083Z,54.70
2023-01-31T10:32:42.565Z,49.70
2023-01-31T10:33:42.559Z,52.20
2023-01-31T10:34:42.550Z,55.29
2023-01-31T10:35:42.561Z,56.20
2023-01-31T10:36:42.549Z,53.00
2023-01-31T10:37:44.424Z,57.40
2023-01-31T10:38:42.511Z,51.59
2023-01-31T10:39:42.500Z,52.90
2023-01-31T10:40:42.497Z,50.20
2023-01-31T10:41:42.481Z,50.09
2023-01-31T10:42:42.477Z,54.50
2023-01-31T10:43:42.513Z,47.59
2023-01-31T10:44:42.454Z,48.29
2023-01-31T10:45:42.507Z,52.50
2023-01-31T10:46:42.437Z,49.50
2023-01-31T10:47:42.437Z,49.79
2023-01-31T10:48:43.919Z,47.59
2023-01-31T10:49:42.405Z,48.70
2023-01-31T10:52:31.850Z,51.00
2023-01-31T10:52:33.258Z,47.90
2023-01-31T10:53:33.252Z,48.00
2023-01-31T10:54:33.241Z,42.70
2023-01-31T10:55:33.234Z,42.50
2023-01-31T10:58:08.404Z,41.00
2023-01-31T10:58:09.792Z,40.79
2023-01-31T10:59:09.811Z,41.29
2023-01-31T11:00:58.011Z,35.59
2023-01-31T11:01:09.795Z,39.90
2023-01-31T11:02:09.813Z,34.40
2023-01-31T11:04:13.892Z,36.00
2023-01-31T11:05:15.304Z,29.10
2023-01-31T12:32:21.121Z,29.70
2023-01-31T14:34:25.114Z,23.29
2023-01-31T15:30:50.891Z,15.10
2023-01-31T15:30:55.576Z,27.79
2023-01-31T15:31:52.426Z,27.89
2023-01-31T15:32:52.303Z,30.39
2023-01-31T15:33:52.300Z,29.89
2023-01-31T15:34:52.284Z,29.10
2023-01-31T15:35:52.283Z,28.50
2023-01-31T15:36:52.272Z,28.00
2023-01-31T15:37:52.261Z,32.20
2023-01-31T15:38:52.249Z,29.79
2023-01-31T15:39:52.270Z,32.90
2023-01-31T15:40:52.228Z,32.20
2023-01-31T15:41:52.223Z,31.29
2023-01-31T15:42:52.219Z,28.89
2023-01-31T15:43:52.225Z,33.50
2023-01-31T15:44:52.208Z,30.00
2023-01-31T15:45:52.379Z,32.90
2023-01-31T15:46:52.177Z,32.59
2023-01-31T15:47:52.163Z,32.79
2023-01-31T15:48:52.163Z,30.39
2023-01-31T15:49:52.143Z,36.00
2023-01-31T15:50:52.134Z,32.20
2023-01-31T15:51:52.126Z,35.50
2023-01-31T15:52:52.115Z,35.70
2023-01-31T15:53:52.107Z,31.20
2023-01-31T15:54:52.098Z,30.20
2023-01-31T15:55:52.104Z,34.40
2023-01-31T15:56:52.074Z,31.89
2023-01-31T15:57:52.071Z,30.39
2023-01-31T15:58:52.056Z,31.79
2023-01-31T15:59:52.097Z,29.89
2023-01-31T16:00:52.151Z,29.50
2023-01-31T16:01:52.051Z,32.50
2023-01-31T16:02:52.054Z,30.29
2023-01-31T16:03:52.010Z,32.79
2023-01-31T16:04:52.002Z,32.09
2023-01-31T16:05:51.988Z,31.20
2023-01-31T16:06:51.982Z,31.10
2023-01-31T16:07:51.975Z,31.20
2023-01-31T16:08:51.962Z,32.09
2023-01-31T16:09:51.953Z,31.00
2023-01-31T16:10:51.941Z,31.20
2023-01-31T16:11:51.958Z,29.89
2023-01-31T16:12:51.922Z,31.89
2023-01-31T16:13:51.911Z,33.70
2023-01-31T16:14:51.899Z,32.00
2023-01-31T16:15:51.891Z,32.50
2023-01-31T16:16:51.877Z,34.59
2023-01-31T16:17:51.909Z,36.70
2023-01-31T16:18:51.868Z,33.00
2023-01-31T16:19:51.852Z,32.09
2023-01-31T16:20:51.838Z,31.20
2023-01-31T16:21:51.830Z,34.00
2023-01-31T16:22:51.817Z,32.79
2023-01-31T16:23:52.547Z,33.50
2023-01-31T16:24:51.800Z,28.50
2023-01-31T16:25:51.816Z,36.70
2023-01-31T16:26:51.976Z,37.50
2023-01-31T16:27:51.777Z,35.40
2023-01-31T16:28:51.757Z,75.80
2023-01-31T16:29:51.757Z,77.90
2023-01-31T16:30:51.856Z,65.50
2023-01-31T16:31:51.837Z,86.19
2023-01-31T16:32:51.717Z,53.29
2023-01-31T16:33:51.731Z,47.79
2023-01-31T16:34:51.692Z,49.50
2023-01-31T16:35:57.936Z,58.70
2023-01-31T16:36:52.694Z,51.90
2023-01-31T16:37:51.666Z,44.79
2023-01-31T16:38:51.658Z,45.59
2023-01-31T16:39:51.742Z,45.79
2023-01-31T16:40:51.635Z,39.70
2023-01-31T16:41:51.623Z,61.09
2023-01-31T16:42:51.624Z,60.09
2023-01-31T16:43:51.606Z,52.59
2023-01-31T16:44:51.590Z,39.40
2023-01-31T16:45:51.626Z,38.20
2023-01-31T16:46:51.573Z,41.20
2023-01-31T16:47:51.564Z,46.09
2023-01-31T16:48:51.555Z,41.79
2023-01-31T16:49:51.569Z,41.70
2023-01-31T16:50:51.531Z,54.09
2023-01-31T16:51:51.519Z,68.30
2023-01-31T16:52:51.516Z,54.79
2023-01-31T16:53:51.504Z,88.09
2023-01-31T16:54:51.494Z,113.30
2023-01-31T16:55:51.483Z,80.09
2023-01-31T16:56:51.471Z,126.50
2023-01-31T16:57:51.459Z,101.30
2023-01-31T16:58:51.454Z,58.20
2023-01-31T16:59:51.548Z,44.09
2023-01-31T17:00:51.434Z,42.59
2023-01-31T17:01:51.502Z,40.59
2023-01-31T17:02:51.437Z,42.29
2023-01-31T17:03:51.397Z,39.70
2023-01-31T17:04:51.387Z,40.70
2023-01-31T17:05:51.411Z,38.29
2023-01-31T17:06:51.365Z,40.70
2023-01-31T17:07:51.356Z,40.79
2023-01-31T17:08:51.369Z,40.29
2023-01-31T17:09:51.340Z,41.50
2023-01-31T17:10:51.326Z,41.29
2023-01-31T17:11:51.333Z,37.00
2023-01-31T17:12:51.328Z,39.59
2023-01-31T17:13:51.295Z,38.50
2023-01-31T17:14:51.313Z,38.70
2023-01-31T17:15:51.327Z,37.70
2023-01-31T17:16:51.271Z,36.50
2023-01-31T17:17:51.265Z,43.70
2023-01-31T17:18:51.247Z,43.59
2023-01-31T17:19:51.239Z,38.20
2023-01-31T17:20:51.229Z,39.20
2023-01-31T17:21:51.242Z,36.20
2023-01-31T17:22:57.147Z,36.90
2023-01-31T17:23:52.219Z,35.70
2023-01-31T17:24:51.215Z,36.00
2023-01-31T17:25:51.183Z,37.29
2023-01-31T17:26:53.749Z,40.59
2023-01-31T17:27:51.155Z,39.40
2023-01-31T17:29:01.587Z,37.50
2023-01-31T17:29:52.161Z,40.79
2023-01-31T17:30:51.216Z,37.59
2023-01-31T17:31:51.179Z,39.09
2023-01-31T17:32:51.111Z,37.79
2023-01-31T17:33:51.096Z,34.09
2023-01-31T17:34:51.112Z,35.50
2023-01-31T17:35:51.074Z,34.90
2023-01-31T17:36:51.064Z,36.09
2023-01-31T17:37:51.080Z,37.09
2023-01-31T17:38:52.654Z,35.20
2023-01-31T17:39:51.069Z,32.59
2023-01-31T17:40:51.081Z,37.40
2023-01-31T17:41:51.021Z,35.09
2023-01-31T17:42:51.002Z,37.50
2023-01-31T17:43:50.995Z,31.50
2023-01-31T17:44:50.981Z,34.79
2023-01-31T17:45:50.973Z,32.79
2023-01-31T17:46:50.967Z,33.00
2023-01-31T17:47:50.956Z,28.39
2023-01-31T17:48:50.941Z,30.00
2023-01-31T17:49:50.935Z,27.10
2023-01-31T17:50:52.489Z,28.50
2023-01-31T17:51:50.917Z,31.70
2023-01-31T17:52:50.903Z,31.00
2023-01-31T17:53:50.917Z,27.20
2023-01-31T17:54:50.887Z,30.50
2023-01-31T17:55:50.881Z,33.00
2023-01-31T17:56:52.178Z,25.39
2023-01-31T17:57:50.885Z,27.60
2023-01-31T17:58:50.844Z,26.29
2023-01-31T17:59:50.839Z,31.10
2023-01-31T18:00:50.825Z,31.10
2023-01-31T18:01:50.875Z,25.00
2023-01-31T18:02:52.596Z,25.10
2023-01-31T18:03:50.813Z,23.89
2023-01-31T18:04:50.781Z,27.10
2023-01-31T18:05:50.787Z,24.60
2023-01-31T18:06:50.766Z,24.20
2023-01-31T18:07:50.754Z,27.79
2023-01-31T18:08:52.431Z,32.70
2023-01-31T18:09:50.761Z,31.89
2023-01-31T18:10:50.721Z,29.70
2023-01-31T18:11:50.716Z,26.60
2023-01-31T18:12:50.704Z,25.29
2023-01-31T18:13:50.698Z,25.50
2023-01-31T18:14:50.690Z,25.50
2023-01-31T18:15:50.704Z,23.89
2023-01-31T18:16:50.660Z,24.50
2023-01-31T18:17:50.655Z,24.89
2023-01-31T18:18:52.232Z,23.10
2023-01-31T18:19:50.634Z,21.50
2023-01-31T18:20:50.625Z,23.79
2023-01-31T18:21:55.434Z,22.10
2023-01-31T18:22:50.600Z,23.20
2023-01-31T18:23:50.592Z,22.39
2023-01-31T18:24:50.583Z,23.89
2023-01-31T18:25:50.605Z,22.70
2023-01-31T18:26:50.597Z,21.00
2023-01-31T18:27:50.549Z,22.70
2023-01-31T18:28:50.540Z,23.29
2023-01-31T18:29:50.535Z,22.39
2023-01-31T18:30:50.525Z,22.29
2023-01-31T18:31:50.575Z,21.70
2023-01-31T18:32:50.500Z,23.39
2023-01-31T18:33:50.512Z,19.50
2023-01-31T18:34:50.482Z,30.89
2023-01-31T18:35:50.471Z,26.70
2023-01-31T18:36:50.466Z,30.20
2023-01-31T18:37:50.453Z,22.79
2023-01-31T18:38:50.439Z,22.60
2023-01-31T18:39:50.437Z,22.89
2023-01-31T18:40:50.421Z,22.70
2023-01-31T18:41:50.436Z,20.60
2023-01-31T18:42:50.403Z,20.79
2023-01-31T18:43:50.401Z,20.70
2023-01-31T18:44:50.377Z,21.20
2023-01-31T18:45:50.421Z,20.29
2023-01-31T18:46:50.456Z,22.10
2023-01-31T18:47:50.355Z,23.10
2023-01-31T18:48:50.335Z,19.50
2023-01-31T18:49:50.329Z,19.29
2023-01-31T18:50:50.337Z,20.20
2023-01-31T18:51:50.310Z,23.00
2023-01-31T18:52:50.303Z,20.50
2023-01-31T18:53:50.289Z,20.20
2023-01-31T18:54:50.279Z,19.79
2023-01-31T18:55:50.268Z,20.10
2023-01-31T18:56:50.265Z,20.79
2023-01-31T18:57:50.272Z,26.10
2023-01-31T18:58:50.266Z,29.39
2023-01-31T18:59:50.223Z,24.60
2023-01-31T19:00:50.230Z,26.39
2023-01-31T19:01:50.241Z,25.39
2023-01-31T19:02:50.194Z,29.29
2023-01-31T19:03:50.203Z,36.09
2023-01-31T19:04:50.174Z,30.70
2023-01-31T19:05:50.163Z,23.89
2023-01-31T19:06:50.155Z,22.50
2023-01-31T19:07:50.146Z,22.20
2023-01-31T19:08:50.134Z,21.39
2023-01-31T19:09:50.127Z,17.20
2023-01-31T19:11:50.102Z,19.29
2023-01-31T19:12:50.114Z,20.39
2023-01-31T19:17:50.043Z,18.29
2023-01-31T19:21:50.007Z,26.60
2023-01-31T19:22:50.001Z,25.50
2023-01-31T19:23:49.988Z,21.29
2023-01-31T19:24:49.972Z,24.50
2023-01-31T19:25:49.971Z,20.50
2023-01-31T19:27:49.943Z,21.10
2023-01-31T19:32:49.899Z,20.29
2023-01-31T19:33:49.890Z,20.60
2023-01-31T19:34:49.876Z,27.70
2023-01-31T19:35:49.873Z,32.70
2023-01-31T19:36:49.930Z,29.10
2023-01-31T19:37:49.853Z,23.79
2023-01-31T19:38:49.836Z,20.10
2023-01-31T19:39:49.822Z,20.60
2023-01-31T20:36:49.270Z,23.20
2023-01-31T20:37:49.253Z,28.50
2023-01-31T20:38:49.235Z,27.89
2023-01-31T20:39:49.235Z,20.60
